createdAt,value
2023-03-08T00:00:03.414Z,1.0
2023-03-08T00:15:01.743Z,1.0
2023-03-08T00:30:01.807Z,1.0
2023-03-08T00:45:01.627Z,1.0
2023-03-08T01:00:04.240Z,1.0
2023-03-08T01:15:01.667Z,1.0
2023-03-08T01:21:02.089Z,0.9
2023-03-08T01:23:00.624Z,0.8
2023-03-08T01:24:00.568Z,0.7
2023-03-08T01:28:01.721Z,0.6
2023-03-08T01:29:01.582Z,0.5
2023-03-08T01:30:01.191Z,0.5
2023-03-08T01:31:00.846Z,0.4
2023-03-08T01:32:00.629Z,0.3
2023-03-08T01:34:01.944Z,0.2
2023-03-08T01:35:00.865Z,0.1
2023-03-08T01:43:00.645Z,0.2
2023-03-08T01:44:00.550Z,0.3
2023-03-08T01:45:01.490Z,0.3
2023-03-08T01:53:01.677Z,0.4
2023-03-08T01:54:00.556Z,0.5
2023-03-08T02:00:04.284Z,0.5
2023-03-08T02:01:00.672Z,0.6
2023-03-08T02:02:00.598Z,0.7
2023-03-08T02:04:00.631Z,0.8
2023-03-08T02:05:00.903Z,0.9
2023-03-08T02:07:00.650Z,1.0
2023-03-08T02:15:01.460Z,1.0
2023-03-08T02:23:00.971Z,0.9
2023-03-08T02:25:00.587Z,0.8
2023-03-08T02:26:00.661Z,0.7
2023-03-08T02:28:00.816Z,0.6
2023-03-08T02:29:00.571Z,0.5
2023-03-08T02:30:02.271Z,0.5
2023-03-08T02:31:00.572Z,0.4
2023-03-08T02:32:00.664Z,0.3
2023-03-08T02:34:00.843Z,0.2
2023-03-08T02:35:00.580Z,0.1
2023-03-08T04:59:00.674Z,0.1
2023-03-08T05:00:02.057Z,0.1
2023-03-08T05:01:00.620Z,0.2
2023-03-08T05:02:00.641Z,0.3
2023-03-08T05:04:00.710Z,0.4
2023-03-08T05:05:01.818Z,0.5
2023-03-08T05:06:00.614Z,0.6
2023-03-08T05:07:00.664Z,0.7
2023-03-08T05:08:00.683Z,0.9
2023-03-08T05:09:00.640Z,1.0
2023-03-08T05:10:01.783Z,1.1
2023-03-08T05:11:01.194Z,1.4
2023-03-08T05:12:00.620Z,1.7
2023-03-08T05:13:00.621Z,1.9
2023-03-08T05:14:00.652Z,2.3
2023-03-08T05:15:01.547Z,2.6
2023-03-08T05:16:00.715Z,3.1
2023-03-08T05:17:02.477Z,3.7
2023-03-08T05:18:00.626Z,4.2
2023-03-08T05:19:00.659Z,5.0
2023-03-08T05:20:00.928Z,5.8
2023-03-08T05:21:00.878Z,7.1
2023-03-08T05:22:00.631Z,8.3
2023-03-08T05:23:00.616Z,9.6
2023-03-08T05:24:01.043Z,11.8
2023-03-08T05:25:00.908Z,14.0
2023-03-08T05:26:00.628Z,17.4
2023-03-08T05:27:00.621Z,20.8
2023-03-08T05:28:00.632Z,24.2
2023-03-08T05:29:00.654Z,29.9
2023-03-08T05:30:01.537Z,35.7
2023-03-08T05:31:00.823Z,44.4
2023-03-08T05:32:00.644Z,53.1
2023-03-08T05:33:00.616Z,61.9
2023-03-08T05:34:00.654Z,75.1
2023-03-08T05:35:00.886Z,88.3
2023-03-08T05:36:00.645Z,107.5
2023-03-08T05:37:00.616Z,126.7
2023-03-08T05:38:00.616Z,145.9
2023-03-08T05:39:00.703Z,172.9
2023-03-08T05:40:00.846Z,200.0
2023-03-08T05:41:00.629Z,237.5
2023-03-08T05:42:00.619Z,274.9
2023-03-08T05:43:00.626Z,312.4
2023-03-08T05:44:00.658Z,362.6
2023-03-08T05:45:01.910Z,412.8
2023-03-08T05:46:00.763Z,479.0
2023-03-08T05:47:00.684Z,545.2
2023-03-08T05:48:00.624Z,611.4
2023-03-08T05:49:00.652Z,696.1
2023-03-08T05:50:01.597Z,780.7
2023-03-08T05:51:00.680Z,886.7
2023-03-08T05:52:00.618Z,992.7
2023-03-08T05:53:00.617Z,1098.7
2023-03-08T05:54:00.649Z,1228.2
2023-03-08T05:55:01.507Z,1357.7
2023-03-08T05:56:00.971Z,1512.1
2023-03-08T05:57:00.665Z,1666.5
2023-03-08T05:58:00.627Z,1820.9
2023-03-08T05:59:00.652Z,1999.9
2023-03-08T06:00:03.557Z,2179.0
2023-03-08T06:01:00.615Z,2380.9
2023-03-08T06:02:00.650Z,2582.7
2023-03-08T06:03:00.676Z,2784.6
2023-03-08T06:04:00.657Z,3012.7
2023-03-08T06:05:01.462Z,3240.7
2023-03-08T06:06:00.882Z,3486.3
2023-03-08T06:07:00.627Z,3731.9
2023-03-08T06:08:00.626Z,3977.5
2023-03-08T06:09:00.675Z,4240.6
2023-03-08T06:10:01.551Z,4503.7
2023-03-08T06:11:00.624Z,4791.4
2023-03-08T06:12:00.622Z,5079.1
2023-03-08T06:13:00.696Z,5366.9
2023-03-08T06:14:00.656Z,5633.5
2023-03-08T06:15:01.795Z,5900.1
2023-03-08T06:16:00.646Z,6188.9
2023-03-08T06:17:01.016Z,6477.7
2023-03-08T06:18:00.632Z,6766.5
2023-03-08T06:19:00.692Z,7135.0
2023-03-08T06:20:02.012Z,7503.5
2023-03-08T06:21:00.620Z,7860.4
2023-03-08T06:22:00.641Z,8217.3
2023-03-08T06:23:00.693Z,8574.1
2023-03-08T06:24:01.413Z,9031.5
2023-03-08T06:25:01.536Z,9488.8
2023-03-08T06:26:00.626Z,9948.6
2023-03-08T06:27:00.635Z,10408.4
2023-03-08T06:28:00.629Z,10868.2
2023-03-08T06:29:00.631Z,11391.1
2023-03-08T06:30:01.886Z,11914.1
2023-03-08T06:31:00.656Z,12436.7
2023-03-08T06:32:02.110Z,12959.3
2023-03-08T06:33:00.641Z,13481.9
2023-03-08T06:34:00.632Z,14027.0
2023-03-08T06:35:07.640Z,14572.1
2023-03-08T06:36:00.803Z,15268.6
2023-03-08T06:37:00.628Z,15965.1
2023-03-08T06:38:00.633Z,16661.5
2023-03-08T06:39:00.633Z,17230.7
2023-03-08T06:40:01.508Z,17799.9
2023-03-08T06:41:00.629Z,18570.1
2023-03-08T06:42:00.644Z,19340.2
2023-03-08T06:43:00.671Z,20110.3
2023-03-08T06:44:00.634Z,20670.1
2023-03-08T06:45:01.501Z,21229.8
2023-03-08T06:46:00.813Z,21648.1
2023-03-08T06:47:00.634Z,22066.5
2023-03-08T06:48:00.632Z,22484.8
2023-03-08T06:49:00.983Z,23031.7
2023-03-08T06:50:01.768Z,23578.7
2023-03-08T06:51:00.747Z,24017.9
2023-03-08T06:52:00.644Z,24457.2
2023-03-08T06:53:00.672Z,24896.5
2023-03-08T06:54:00.667Z,25713.5
2023-03-08T06:55:01.707Z,26530.6
2023-03-08T06:56:00.728Z,27076.1
2023-03-08T06:57:00.641Z,27621.5
2023-03-08T06:58:01.121Z,28167.0
2023-03-08T06:59:00.684Z,28759.3
2023-03-08T07:00:03.799Z,29351.7
2023-03-08T07:01:00.709Z,30438.7
2023-03-08T07:02:00.653Z,31525.8
2023-03-08T07:03:00.641Z,32612.9
2023-03-08T07:04:05.664Z,33454.2
2023-03-08T07:05:01.737Z,34295.5
2023-03-08T07:06:00.895Z,35315.5
2023-03-08T07:07:00.682Z,36335.4
2023-03-08T07:08:00.642Z,37355.3
2023-03-08T07:09:00.950Z,37735.4
2023-03-08T07:10:00.898Z,38115.5
2023-03-08T07:11:00.715Z,38181.7
2023-03-08T07:12:00.641Z,38248.0
2023-03-08T07:13:00.641Z,38314.3
2023-03-08T07:14:00.676Z,38730.4
2023-03-08T07:15:02.076Z,39146.5
2023-03-08T07:16:00.657Z,39364.1
2023-03-08T07:17:00.638Z,39581.7
2023-03-08T07:18:00.678Z,39799.3
2023-03-08T07:19:00.933Z,40351.7
2023-03-08T07:20:01.732Z,40904.1
2023-03-08T07:21:00.636Z,41028.0
2023-03-08T07:22:00.652Z,41151.9
2023-03-08T07:23:00.723Z,41275.7
2023-03-08T07:24:00.762Z,41335.3
2023-03-08T07:25:02.466Z,41394.9
2023-03-08T07:26:00.649Z,42864.9
2023-03-08T07:27:00.643Z,44334.8
2023-03-08T07:28:00.709Z,45804.7
2023-03-08T07:29:00.714Z,46209.8
2023-03-08T07:30:01.562Z,46614.9
2023-03-08T07:31:00.642Z,47904.0
2023-03-08T07:32:00.709Z,49193.1
2023-03-08T07:33:00.722Z,50482.3
2023-03-08T07:34:00.678Z,50967.5
2023-03-08T07:35:02.501Z,51452.7
2023-03-08T07:36:00.665Z,52497.4
2023-03-08T07:37:00.650Z,53542.1
2023-03-08T07:38:00.649Z,54586.9
2023-03-08T07:39:00.882Z,56026.1
2023-03-08T07:40:01.515Z,57465.4
2023-03-08T07:41:00.650Z,58039.5
2023-03-08T07:42:00.712Z,58613.7
2023-03-08T07:43:00.701Z,59187.8
2023-03-08T07:44:00.680Z,60417.0
2023-03-08T07:45:02.427Z,61646.2
2023-03-08T07:46:00.730Z,61728.9
2023-03-08T07:47:00.650Z,61811.5
2023-03-08T07:48:00.658Z,61894.2
2023-03-08T07:49:00.690Z,62596.9
2023-03-08T07:50:01.583Z,63299.5
2023-03-08T07:51:00.925Z,63365.2
2023-03-08T07:52:00.665Z,63430.9
2023-03-08T07:53:00.653Z,63496.5
2023-03-08T07:54:00.682Z,63721.1
2023-03-08T07:55:01.825Z,63945.6
2023-03-08T07:59:00.692Z,64087.2
2023-03-08T08:00:04.579Z,64228.8
2023-03-08T08:01:00.664Z,64414.2
2023-03-08T08:02:00.658Z,64599.6
2023-03-08T08:03:00.692Z,64785.0
2023-03-08T08:04:05.679Z,64527.1
2023-03-08T08:05:01.202Z,64269.3
2023-03-08T08:06:00.658Z,64519.3
2023-03-08T08:07:00.676Z,64769.3
2023-03-08T08:08:00.659Z,65019.3
2023-03-08T08:15:01.932Z,65019.3
2023-03-08T08:19:00.659Z,65277.1
2023-03-08T08:20:00.885Z,65535.0
2023-03-08T08:30:01.839Z,65535.0
2023-03-08T08:45:01.724Z,65535.0
2023-03-08T08:56:01.232Z,65045.9
2023-03-08T08:57:00.698Z,64556.7
2023-03-08T08:58:01.692Z,64067.6
2023-03-08T08:59:00.684Z,64013.6
2023-03-08T09:00:01.721Z,63959.6
2023-03-08T09:11:01.318Z,64448.7
2023-03-08T09:12:00.670Z,64937.9
2023-03-08T09:13:00.725Z,65427.0
2023-03-08T09:14:00.699Z,65481.0
2023-03-08T09:15:01.419Z,65535.0
2023-03-08T09:30:02.937Z,65535.0
2023-03-08T09:45:03.296Z,65535.0
2023-03-08T10:00:24.810Z,65535.0
2023-03-08T10:25:02.563Z,65535.0
2023-03-08T10:30:02.319Z,65535.0
2023-03-08T10:45:02.780Z,65535.0
2023-03-08T11:00:03.858Z,65535.0
2023-03-08T11:15:02.426Z,65535.0
2023-03-08T11:30:01.663Z,65535.0
2023-03-08T11:45:03.045Z,65535.0
2023-03-08T12:00:04.846Z,65535.0
2023-03-08T12:15:02.681Z,65535.0
2023-03-08T12:30:03.060Z,65535.0
2023-03-08T12:45:01.764Z,65535.0
2023-03-08T13:00:05.001Z,65535.0
2023-03-08T13:15:02.248Z,65535.0
2023-03-08T13:30:02.761Z,65535.0
2023-03-08T13:45:01.775Z,65535.0
2023-03-08T14:00:04.054Z,65535.0
2023-03-08T14:15:03.001Z,65535.0
2023-03-08T14:30:01.986Z,65535.0
2023-03-08T14:45:01.734Z,65535.0
2023-03-08T15:00:03.888Z,65535.0
2023-03-08T15:04:01.088Z,64871.4
2023-03-08T15:05:01.953Z,64207.8
2023-03-08T15:06:00.826Z,63154.1
2023-03-08T15:07:00.880Z,62100.3
2023-03-08T15:08:00.855Z,61046.6
2023-03-08T15:09:00.830Z,59652.9
2023-03-08T15:10:02.775Z,58259.1
2023-03-08T15:11:00.917Z,57390.7
2023-03-08T15:12:00.947Z,56522.2
2023-03-08T15:13:00.876Z,55653.7
2023-03-08T15:15:01.742Z,55653.7
2023-03-08T15:19:00.872Z,56136.3
2023-03-08T15:20:01.741Z,56618.8
2023-03-08T15:21:00.830Z,57491.5
2023-03-08T15:22:00.841Z,58545.2
2023-03-08T15:23:00.855Z,59598.9
2023-03-08T15:24:00.827Z,60992.7
2023-03-08T15:25:02.161Z,62386.4
2023-03-08T15:26:00.827Z,63254.9
2023-03-08T15:27:00.827Z,64123.3
2023-03-08T15:28:00.859Z,64991.8
2023-03-08T15:30:02.549Z,64991.8
2023-03-08T15:32:00.913Z,64503.0
2023-03-08T15:33:00.849Z,64014.2
2023-03-08T15:34:00.822Z,63194.7
2023-03-08T15:35:01.117Z,62375.1
2023-03-08T15:36:00.886Z,61555.6
2023-03-08T15:37:00.838Z,60929.1
2023-03-08T15:38:00.864Z,60302.7
2023-03-08T15:39:01.915Z,59041.4
2023-03-08T15:40:01.961Z,57780.1
2023-03-08T15:41:00.831Z,56518.9
2023-03-08T15:42:00.832Z,55012.5
2023-03-08T15:43:01.084Z,53506.2
2023-03-08T15:44:00.824Z,51883.5
2023-03-08T15:45:01.825Z,50260.7
2023-03-08T15:46:00.824Z,48638.0
2023-03-08T15:47:00.905Z,47484.7
2023-03-08T15:48:00.868Z,46331.3
2023-03-08T15:49:00.826Z,45709.1
2023-03-08T15:50:01.691Z,45086.8
2023-03-08T15:51:00.865Z,44464.5
2023-03-08T15:52:00.832Z,43254.0
2023-03-08T15:53:00.890Z,42043.5
2023-03-08T15:54:01.010Z,41297.7
2023-03-08T15:55:01.677Z,40551.9
2023-03-08T15:56:00.834Z,39806.1
2023-03-08T15:57:01.095Z,39279.7
2023-03-08T15:58:00.862Z,38753.3
2023-03-08T15:59:00.828Z,38324.3
2023-03-08T16:00:03.691Z,37895.4
2023-03-08T16:01:00.842Z,37466.5
2023-03-08T16:02:01.118Z,37006.2
2023-03-08T16:03:00.890Z,36545.9
2023-03-08T16:04:00.839Z,36095.3
2023-03-08T16:05:01.804Z,35644.6
2023-03-08T16:06:00.832Z,35193.9
2023-03-08T16:07:01.893Z,34964.7
2023-03-08T16:08:00.875Z,34735.4
2023-03-08T16:09:00.834Z,34441.6
2023-03-08T16:10:02.893Z,34147.8
2023-03-08T16:11:00.907Z,33854.0
2023-03-08T16:12:00.832Z,33328.5
2023-03-08T16:13:00.901Z,32803.1
2023-03-08T16:14:00.840Z,32158.0
2023-03-08T16:15:03.113Z,31512.9
2023-03-08T16:16:00.837Z,30867.9
2023-03-08T16:17:00.927Z,30121.9
2023-03-08T16:18:00.891Z,29376.0
2023-03-08T16:19:00.841Z,28473.9
2023-03-08T16:20:02.095Z,27571.7
2023-03-08T16:21:00.865Z,26669.6
2023-03-08T16:22:00.846Z,25588.5
2023-03-08T16:23:00.925Z,24507.5
2023-03-08T16:24:00.846Z,23609.7
2023-03-08T16:25:02.013Z,22711.9
2023-03-08T16:26:13.894Z,21814.1
2023-03-08T16:27:00.843Z,21223.3
2023-03-08T16:28:00.884Z,20632.6
2023-03-08T16:29:00.853Z,20098.1
2023-03-08T16:30:01.683Z,19563.7
2023-03-08T16:31:00.868Z,19029.2
2023-03-08T16:32:00.920Z,18495.3
2023-03-08T16:33:00.912Z,17961.3
2023-03-08T16:34:00.849Z,17500.1
2023-03-08T16:35:01.741Z,17038.9
2023-03-08T16:36:00.899Z,16577.7
2023-03-08T16:37:00.848Z,16242.3
2023-03-08T16:38:00.891Z,15906.8
2023-03-08T16:39:00.885Z,15568.9
2023-03-08T16:40:02.916Z,15230.9
2023-03-08T16:41:11.413Z,14893.0
2023-03-08T16:42:00.850Z,14367.4
2023-03-08T16:43:00.920Z,13841.8
2023-03-08T16:44:00.848Z,13315.4
2023-03-08T16:45:01.747Z,12789.0
2023-03-08T16:46:00.927Z,12262.6
2023-03-08T16:47:00.851Z,11840.8
2023-03-08T16:48:00.915Z,11419.0
2023-03-08T16:49:00.853Z,11020.5
2023-03-08T16:50:01.800Z,10621.9
2023-03-08T16:51:00.862Z,10223.4
2023-03-08T16:52:00.871Z,9836.1
2023-03-08T16:53:00.897Z,9448.7
2023-03-08T16:54:00.856Z,9077.3
2023-03-08T16:55:01.879Z,8705.8
2023-03-08T16:56:00.850Z,8334.3
2023-03-08T16:57:10.000Z,8056.6
2023-03-08T16:58:00.944Z,7778.9
2023-03-08T16:59:00.861Z,7538.1
2023-03-08T17:00:05.460Z,7297.4
2023-03-08T17:01:00.863Z,7056.7
2023-03-08T17:02:00.886Z,6811.5
2023-03-08T17:03:00.887Z,6566.4
2023-03-08T17:04:00.878Z,6292.7
2023-03-08T17:05:02.600Z,6018.9
2023-03-08T17:06:00.858Z,5745.2
2023-03-08T17:07:00.854Z,5455.5
2023-03-08T17:08:00.888Z,5165.9
2023-03-08T17:09:00.870Z,4877.7
2023-03-08T17:10:01.732Z,4589.5
2023-03-08T17:11:00.898Z,4301.3
2023-03-08T17:12:00.857Z,4026.2
2023-03-08T17:13:00.891Z,3751.1
2023-03-08T17:14:00.870Z,3494.3
2023-03-08T17:15:01.707Z,3237.4
2023-03-08T17:16:00.926Z,2980.5
2023-03-08T17:17:00.852Z,2750.3
2023-03-08T17:18:00.888Z,2520.0
2023-03-08T17:19:00.860Z,2329.3
2023-03-08T17:20:02.656Z,2138.5
2023-03-08T17:21:00.858Z,1947.8
2023-03-08T17:22:00.860Z,1790.4
2023-03-08T17:23:00.893Z,1633.0
2023-03-08T17:24:00.873Z,1497.6
2023-03-08T17:25:01.711Z,1362.2
2023-03-08T17:26:00.874Z,1226.8
2023-03-08T17:27:00.930Z,1111.0
2023-03-08T17:28:00.902Z,995.2
2023-03-08T17:29:00.864Z,898.9
2023-03-08T17:30:02.781Z,802.5
2023-03-08T17:31:00.918Z,706.2
2023-03-08T17:32:00.892Z,628.3
2023-03-08T17:33:00.900Z,550.3
2023-03-08T17:34:00.870Z,488.8
2023-03-08T17:35:02.573Z,427.3
2023-03-08T17:36:01.033Z,365.7
2023-03-08T17:37:00.866Z,318.9
2023-03-08T17:38:00.908Z,272.0
2023-03-08T17:39:00.890Z,237.9
2023-03-08T17:40:02.861Z,203.7
2023-03-08T17:41:00.871Z,169.6
2023-03-08T17:42:00.873Z,145.9
2023-03-08T17:43:00.948Z,122.1
2023-03-08T17:44:00.869Z,106.1
2023-03-08T17:45:03.640Z,90.0
2023-03-08T17:46:00.929Z,73.9
2023-03-08T17:47:00.868Z,63.2
2023-03-08T17:48:01.359Z,52.5
2023-03-08T17:49:00.885Z,45.4
2023-03-08T17:50:02.646Z,38.3
2023-03-08T17:51:00.870Z,31.3
2023-03-08T17:52:00.890Z,26.7
2023-03-08T17:53:00.877Z,22.1
2023-03-08T17:54:00.999Z,19.1
2023-03-08T17:55:01.739Z,16.1
2023-03-08T17:56:00.875Z,13.1
2023-03-08T17:57:00.926Z,11.1
2023-03-08T17:58:00.879Z,9.1
2023-03-08T17:59:00.937Z,7.7
2023-03-08T18:00:04.408Z,6.4
2023-03-08T18:01:00.886Z,5.1
2023-03-08T18:02:00.913Z,4.3
2023-03-08T18:03:00.883Z,3.5
2023-03-08T18:04:00.910Z,3.0
2023-03-08T18:05:01.818Z,2.5
2023-03-08T18:06:00.887Z,2.1
2023-03-08T18:07:00.885Z,1.7
2023-03-08T18:08:00.881Z,1.4
2023-03-08T18:09:00.936Z,1.2
2023-03-08T18:10:01.763Z,1.0
2023-03-08T18:11:00.908Z,0.8
2023-03-08T18:12:00.892Z,0.7
2023-03-08T18:13:00.891Z,0.5
2023-03-08T18:15:01.884Z,0.4
2023-03-08T18:16:00.939Z,0.3
2023-03-08T18:18:00.891Z,0.2
2023-03-08T18:19:00.938Z,0.1
2023-03-08T22:42:00.919Z,0.1
2023-03-08T22:45:02.415Z,0.1
2023-03-08T22:47:00.843Z,0.2
2023-03-08T22:48:00.656Z,0.3
2023-03-08T22:53:01.682Z,0.4
2023-03-08T22:54:00.598Z,0.5
2023-03-08T22:56:05.612Z,0.6
2023-03-08T22:59:00.844Z,0.7
2023-03-08T23:00:01.273Z,0.7
2023-03-08T23:01:00.686Z,0.8
2023-03-08T23:04:06.630Z,0.9
2023-03-08T23:06:00.629Z,1.0
2023-03-08T23:15:02.557Z,1.0
2023-03-08T23:30:02.434Z,1.0
2023-03-08T23:45:01.642Z,1.0
